sensor_id;sensor_type;location;lat;lon;timestamp;P1;durP1;ratioP1;P2;durP2;ratioP2
51296;SDS011;37380;45.186;9.792;2023-02-26T00:02:25;49.90;;;31.42;;
51296;SDS011;37380;45.186;9.792;2023-02-26T00:04:53;50.95;;;30.30;;
51296;SDS011;37380;45.186;9.792;2023-02-26T00:07:20;47.30;;;28.92;;
51296;SDS011;37380;45.186;9.792;2023-02-26T00:09:47;55.28;;;30.05;;
51296;SDS011;37380;45.186;9.792;2023-02-26T00:12:14;72.82;;;32.78;;
51296;SDS011;37380;45.186;9.792;2023-02-26T00:14:41;56.60;;;29.98;;
51296;SDS011;37380;45.186;9.792;2023-02-26T00:20:10;49.60;;;30.45;;
51296;SDS011;37380;45.186;9.792;2023-02-26T00:22:45;44.53;;;31.27;;
51296;SDS011;37380;45.186;9.792;2023-02-26T00:25:46;56.35;;;30.40;;
51296;SDS011;37380;45.186;9.792;2023-02-26T00:28:40;43.72;;;30.08;;
51296;SDS011;37380;45.186;9.792;2023-02-26T00:31:08;60.97;;;29.55;;
51296;SDS011;37380;45.186;9.792;2023-02-26T00:33:36;67.28;;;32.38;;
51296;SDS011;37380;45.186;9.792;2023-02-26T00:39:08;58.08;;;31.63;;
51296;SDS011;37380;45.186;9.792;2023-02-26T00:42:18;45.00;;;29.55;;
51296;SDS011;37380;45.186;9.792;2023-02-26T00:44:46;48.10;;;30.40;;
51296;SDS011;37380;45.186;9.792;2023-02-26T00:55:27;45.00;;;30.40;;
51296;SDS011;37380;45.186;9.792;2023-02-26T00:57:55;43.33;;;29.60;;
51296;SDS011;37380;45.186;9.792;2023-02-26T01:00:22;43.72;;;29.58;;
51296;SDS011;37380;45.186;9.792;2023-02-26T01:02:50;54.00;;;34.20;;
51296;SDS011;37380;45.186;9.792;2023-02-26T01:05:18;42.67;;;30.20;;
51296;SDS011;37380;45.186;9.792;2023-02-26T01:07:47;56.40;;;31.75;;
51296;SDS011;37380;45.186;9.792;2023-02-26T01:10:32;46.10;;;32.15;;
51296;SDS011;37380;45.186;9.792;2023-02-26T01:13:00;59.95;;;34.60;;
51296;SDS011;37380;45.186;9.792;2023-02-26T01:15:27;66.00;;;35.35;;
51296;SDS011;37380;45.186;9.792;2023-02-26T01:18:10;56.05;;;34.92;;
51296;SDS011;37380;45.186;9.792;2023-02-26T01:21:23;49.80;;;32.25;;
51296;SDS011;37380;45.186;9.792;2023-02-26T01:24:24;50.30;;;33.78;;
51296;SDS011;37380;45.186;9.792;2023-02-26T01:26:55;49.58;;;31.13;;
51296;SDS011;37380;45.186;9.792;2023-02-26T01:29:22;42.08;;;30.20;;
51296;SDS011;37380;45.186;9.792;2023-02-26T01:31:51;50.25;;;30.92;;
51296;SDS011;37380;45.186;9.792;2023-02-26T01:43:17;44.47;;;30.83;;
51296;SDS011;37380;45.186;9.792;2023-02-26T01:48:36;65.18;;;35.28;;
51296;SDS011;37380;45.186;9.792;2023-02-26T01:54:06;47.90;;;29.10;;
51296;SDS011;37380;45.186;9.792;2023-02-26T01:56:34;51.42;;;32.83;;
51296;SDS011;37380;45.186;9.792;2023-02-26T01:59:02;49.17;;;30.90;;
51296;SDS011;37380;45.186;9.792;2023-02-26T02:01:31;45.42;;;29.67;;
51296;SDS011;37380;45.186;9.792;2023-02-26T02:03:59;59.40;;;30.00;;
51296;SDS011;37380;45.186;9.792;2023-02-26T02:06:26;51.40;;;34.20;;
51296;SDS011;37380;45.186;9.792;2023-02-26T02:08:56;45.45;;;33.50;;
51296;SDS011;37380;45.186;9.792;2023-02-26T02:11:23;51.38;;;32.75;;
51296;SDS011;37380;45.186;9.792;2023-02-26T02:21:36;57.22;;;31.77;;
51296;SDS011;37380;45.186;9.792;2023-02-26T02:33:24;52.80;;;35.60;;
51296;SDS011;37380;45.186;9.792;2023-02-26T02:36:13;56.13;;;35.13;;
51296;SDS011;37380;45.186;9.792;2023-02-26T02:38:48;65.88;;;36.47;;
51296;SDS011;37380;45.186;9.792;2023-02-26T02:41:55;55.35;;;35.17;;
51296;SDS011;37380;45.186;9.792;2023-02-26T02:44:31;46.53;;;31.85;;
51296;SDS011;37380;45.186;9.792;2023-02-26T02:47:04;52.80;;;34.17;;
51296;SDS011;37380;45.186;9.792;2023-02-26T02:49:35;51.33;;;35.83;;
51296;SDS011;37380;45.186;9.792;2023-02-26T02:52:34;59.58;;;33.15;;
51296;SDS011;37380;45.186;9.792;2023-02-26T02:55:40;51.58;;;34.47;;
51296;SDS011;37380;45.186;9.792;2023-02-26T02:58:14;53.70;;;35.67;;
51296;SDS011;37380;45.186;9.792;2023-02-26T03:00:52;59.78;;;37.08;;
51296;SDS011;37380;45.186;9.792;2023-02-26T03:04:06;57.75;;;38.30;;
51296;SDS011;37380;45.186;9.792;2023-02-26T03:06:37;53.95;;;38.22;;
51296;SDS011;37380;45.186;9.792;2023-02-26T03:09:07;61.10;;;35.45;;
51296;SDS011;37380;45.186;9.792;2023-02-26T03:11:40;69.60;;;41.20;;
51296;SDS011;37380;45.186;9.792;2023-02-26T03:14:08;60.75;;;39.03;;
51296;SDS011;37380;45.186;9.792;2023-02-26T03:25:23;53.30;;;34.65;;
51296;SDS011;37380;45.186;9.792;2023-02-26T03:28:58;53.58;;;35.67;;
51296;SDS011;37380;45.186;9.792;2023-02-26T03:34:00;56.45;;;30.15;;
51296;SDS011;37380;45.186;9.792;2023-02-26T03:36:44;48.72;;;30.58;;
51296;SDS011;37380;45.186;9.792;2023-02-26T03:39:38;40.17;;;26.00;;
51296;SDS011;37380;45.186;9.792;2023-02-26T03:42:54;49.78;;;29.38;;
51296;SDS011;37380;45.186;9.792;2023-02-26T03:45:53;50.60;;;31.70;;
51296;SDS011;37380;45.186;9.792;2023-02-26T03:48:25;51.92;;;31.60;;
51296;SDS011;37380;45.186;9.792;2023-02-26T03:50:57;46.38;;;34.00;;
51296;SDS011;37380;45.186;9.792;2023-02-26T03:53:51;51.10;;;35.08;;
51296;SDS011;37380;45.186;9.792;2023-02-26T03:56:32;59.97;;;37.40;;
51296;SDS011;37380;45.186;9.792;2023-02-26T03:59:25;61.05;;;38.40;;
51296;SDS011;37380;45.186;9.792;2023-02-26T04:02:12;67.35;;;45.35;;
51296;SDS011;37380;45.186;9.792;2023-02-26T04:05:23;88.68;;;56.15;;
51296;SDS011;37380;45.186;9.792;2023-02-26T04:07:52;118.00;;;63.80;;
51296;SDS011;37380;45.186;9.792;2023-02-26T04:10:23;115.88;;;63.45;;
51296;SDS011;37380;45.186;9.792;2023-02-26T04:12:59;111.72;;;65.18;;
51296;SDS011;37380;45.186;9.792;2023-02-26T04:15:27;101.82;;;62.60;;
51296;SDS011;37380;45.186;9.792;2023-02-26T04:18:01;83.70;;;53.45;;
51296;SDS011;37380;45.186;9.792;2023-02-26T04:20:55;100.65;;;44.58;;
51296;SDS011;37380;45.186;9.792;2023-02-26T04:23:22;28.55;;;13.18;;
51296;SDS011;37380;45.186;9.792;2023-02-26T04:25:49;29.90;;;7.35;;
51296;SDS011;37380;45.186;9.792;2023-02-26T04:28:16;30.00;;;5.63;;
51296;SDS011;37380;45.186;9.792;2023-02-26T04:30:45;18.25;;;4.88;;
51296;SDS011;37380;45.186;9.792;2023-02-26T04:33:13;10.65;;;5.05;;
51296;SDS011;37380;45.186;9.792;2023-02-26T04:35:41;10.60;;;3.33;;
51296;SDS011;37380;45.186;9.792;2023-02-26T04:38:08;5.47;;;3.45;;
51296;SDS011;37380;45.186;9.792;2023-02-26T04:40:42;12.20;;;3.20;;
51296;SDS011;37380;45.186;9.792;2023-02-26T04:43:36;7.50;;;2.75;;
51296;SDS011;37380;45.186;9.792;2023-02-26T04:46:17;26.30;;;3.90;;
51296;SDS011;37380;45.186;9.792;2023-02-26T04:48:45;7.65;;;1.85;;
51296;SDS011;37380;45.186;9.792;2023-02-26T04:51:23;2.17;;;1.42;;
51296;SDS011;37380;45.186;9.792;2023-02-26T04:54:28;12.32;;;2.58;;
51296;SDS011;37380;45.186;9.792;2023-02-26T04:57:21;12.52;;;1.73;;
51296;SDS011;37380;45.186;9.792;2023-02-26T04:59:49;5.18;;;1.38;;
51296;SDS011;37380;45.186;9.792;2023-02-26T05:02:17;12.45;;;3.10;;
51296;SDS011;37380;45.186;9.792;2023-02-26T05:04:47;4.25;;;0.98;;
51296;SDS011;37380;45.186;9.792;2023-02-26T05:07:14;3.97;;;1.33;;
51296;SDS011;37380;45.186;9.792;2023-02-26T05:09:41;12.15;;;1.60;;
51296;SDS011;37380;45.186;9.792;2023-02-26T05:12:08;4.45;;;1.17;;
51296;SDS011;37380;45.186;9.792;2023-02-26T05:14:35;13.82;;;1.70;;
51296;SDS011;37380;45.186;9.792;2023-02-26T05:17:08;5.53;;;1.23;;
51296;SDS011;37380;45.186;9.792;2023-02-26T05:20:09;2.30;;;0.93;;
51296;SDS011;37380;45.186;9.792;2023-02-26T05:22:37;1.57;;;1.40;;
51296;SDS011;37380;45.186;9.792;2023-02-26T05:25:06;6.55;;;1.48;;
51296;SDS011;37380;45.186;9.792;2023-02-26T05:27:33;2.92;;;1.30;;
51296;SDS011;37380;45.186;9.792;2023-02-26T05:30:00;4.75;;;1.30;;
51296;SDS011;37380;45.186;9.792;2023-02-26T05:32:28;3.45;;;2.17;;
51296;SDS011;37380;45.186;9.792;2023-02-26T05:34:55;2.30;;;1.38;;
51296;SDS011;37380;45.186;9.792;2023-02-26T05:37:22;1.75;;;1.10;;
51296;SDS011;37380;45.186;9.792;2023-02-26T05:39:55;4.10;;;1.15;;
51296;SDS011;37380;45.186;9.792;2023-02-26T05:42:56;6.13;;;1.25;;
51296;SDS011;37380;45.186;9.792;2023-02-26T05:45:51;0.50;;;0.50;;
51296;SDS011;37380;45.186;9.792;2023-02-26T05:48:18;1.00;;;0.90;;
51296;SDS011;37380;45.186;9.792;2023-02-26T05:50:45;0.75;;;0.75;;
51296;SDS011;37380;45.186;9.792;2023-02-26T05:53:14;2.15;;;0.88;;
51296;SDS011;37380;45.186;9.792;2023-02-26T05:56:08;0.82;;;0.82;;
51296;SDS011;37380;45.186;9.792;2023-02-26T05:59:09;4.32;;;1.30;;
51296;SDS011;37380;45.186;9.792;2023-02-26T06:02:03;0.68;;;0.63;;
51296;SDS011;37380;45.186;9.792;2023-02-26T06:04:30;11.23;;;0.85;;
51296;SDS011;37380;45.186;9.792;2023-02-26T06:06:57;0.77;;;0.47;;
51296;SDS011;37380;45.186;9.792;2023-02-26T06:09:24;0.77;;;0.77;;
51296;SDS011;37380;45.186;9.792;2023-02-26T06:11:51;6.10;;;0.55;;
51296;SDS011;37380;45.186;9.792;2023-02-26T06:14:20;4.35;;;1.38;;
51296;SDS011;37380;45.186;9.792;2023-02-26T06:16:47;9.10;;;0.82;;
51296;SDS011;37380;45.186;9.792;2023-02-26T06:19:20;0.43;;;0.40;;
51296;SDS011;37380;45.186;9.792;2023-02-26T06:22:15;0.77;;;0.45;;
51296;SDS011;37380;45.186;9.792;2023-02-26T06:24:42;1.48;;;0.70;;
51296;SDS011;37380;45.186;9.792;2023-02-26T06:27:15;0.50;;;0.50;;
51296;SDS011;37380;45.186;9.792;2023-02-26T06:30:10;2.40;;;0.77;;
51296;SDS011;37380;45.186;9.792;2023-02-26T06:32:43;11.95;;;0.60;;
51296;SDS011;37380;45.186;9.792;2023-02-26T06:35:37;0.35;;;0.30;;
51296;SDS011;37380;45.186;9.792;2023-02-26T06:38:06;0.60;;;0.60;;
51296;SDS011;37380;45.186;9.792;2023-02-26T06:40:41;0.60;;;0.60;;
51296;SDS011;37380;45.186;9.792;2023-02-26T06:43:35;0.55;;;0.55;;
51296;SDS011;37380;45.186;9.792;2023-02-26T06:46:02;1.75;;;0.98;;
51296;SDS011;37380;45.186;9.792;2023-02-26T06:48:30;3.97;;;2.25;;
51296;SDS011;37380;45.186;9.792;2023-02-26T06:50:57;1.50;;;1.40;;
51296;SDS011;37380;45.186;9.792;2023-02-26T06:53:24;1.95;;;1.13;;
51296;SDS011;37380;45.186;9.792;2023-02-26T06:55:51;1.10;;;0.60;;
51296;SDS011;37380;45.186;9.792;2023-02-26T06:58:19;11.30;;;0.98;;
51296;SDS011;37380;45.186;9.792;2023-02-26T07:00:47;1.92;;;1.35;;
51296;SDS011;37380;45.186;9.792;2023-02-26T07:03:14;3.17;;;1.00;;
51296;SDS011;37380;45.186;9.792;2023-02-26T07:05:43;1.58;;;0.93;;
51296;SDS011;37380;45.186;9.792;2023-02-26T07:08:11;0.80;;;0.73;;
51296;SDS011;37380;45.186;9.792;2023-02-26T07:10:39;1.20;;;0.93;;
51296;SDS011;37380;45.186;9.792;2023-02-26T07:13:08;8.88;;;0.73;;
51296;SDS011;37380;45.186;9.792;2023-02-26T07:15:35;0.63;;;0.60;;
51296;SDS011;37380;45.186;9.792;2023-02-26T07:18:08;0.45;;;0.45;;
51296;SDS011;37380;45.186;9.792;2023-02-26T07:21:09;1.35;;;1.23;;
51296;SDS011;37380;45.186;9.792;2023-02-26T07:24:10;1.25;;;1.15;;
51296;SDS011;37380;45.186;9.792;2023-02-26T07:27:05;0.50;;;0.50;;
51296;SDS011;37380;45.186;9.792;2023-02-26T07:29:32;0.55;;;0.47;;
51296;SDS011;37380;45.186;9.792;2023-02-26T07:31:59;5.55;;;0.70;;
51296;SDS011;37380;45.186;9.792;2023-02-26T07:34:26;0.43;;;0.43;;
51296;SDS011;37380;45.186;9.792;2023-02-26T07:36:53;2.78;;;1.13;;
51296;SDS011;37380;45.186;9.792;2023-02-26T07:39:26;2.42;;;1.25;;
51296;SDS011;37380;45.186;9.792;2023-02-26T07:42:20;3.97;;;0.95;;
51296;SDS011;37380;45.186;9.792;2023-02-26T07:44:51;0.98;;;0.80;;
51296;SDS011;37380;45.186;9.792;2023-02-26T07:47:18;1.58;;;0.77;;
51296;SDS011;37380;45.186;9.792;2023-02-26T07:49:45;1.17;;;0.70;;
51296;SDS011;37380;45.186;9.792;2023-02-26T07:52:12;0.50;;;0.50;;
51296;SDS011;37380;45.186;9.792;2023-02-26T07:54:39;0.30;;;0.30;;
51296;SDS011;37380;45.186;9.792;2023-02-26T07:57:06;0.50;;;0.50;;
51296;SDS011;37380;45.186;9.792;2023-02-26T07:59:33;3.03;;;0.93;;
51296;SDS011;37380;45.186;9.792;2023-02-26T08:02:00;0.70;;;0.70;;
51296;SDS011;37380;45.186;9.792;2023-02-26T08:04:27;0.60;;;0.60;;
51296;SDS011;37380;45.186;9.792;2023-02-26T08:06:54;0.88;;;0.60;;
51296;SDS011;37380;45.186;9.792;2023-02-26T08:09:22;1.75;;;0.77;;
51296;SDS011;37380;45.186;9.792;2023-02-26T08:11:49;0.73;;;0.73;;
51296;SDS011;37380;45.186;9.792;2023-02-26T08:14:22;0.50;;;0.50;;
51296;SDS011;37380;45.186;9.792;2023-02-26T08:17:23;2.20;;;0.85;;
51296;SDS011;37380;45.186;9.792;2023-02-26T08:20:24;0.52;;;0.52;;
51296;SDS011;37380;45.186;9.792;2023-02-26T08:22:52;1.67;;;0.93;;
51296;SDS011;37380;45.186;9.792;2023-02-26T08:25:19;0.30;;;0.30;;
51296;SDS011;37380;45.186;9.792;2023-02-26T08:27:52;0.93;;;0.65;;
51296;SDS011;37380;45.186;9.792;2023-02-26T08:30:53;5.05;;;0.85;;
51296;SDS011;37380;45.186;9.792;2023-02-26T08:33:47;0.50;;;0.50;;
51296;SDS011;37380;45.186;9.792;2023-02-26T08:36:14;0.52;;;0.52;;
51296;SDS011;37380;45.186;9.792;2023-02-26T08:38:41;0.60;;;0.60;;
51296;SDS011;37380;45.186;9.792;2023-02-26T08:41:15;0.85;;;0.50;;
51296;SDS011;37380;45.186;9.792;2023-02-26T08:44:13;0.40;;;0.40;;
51296;SDS011;37380;45.186;9.792;2023-02-26T08:46:40;0.77;;;0.75;;
51296;SDS011;37380;45.186;9.792;2023-02-26T08:49:07;1.15;;;0.60;;
51296;SDS011;37380;45.186;9.792;2023-02-26T08:51:34;2.28;;;0.80;;
51296;SDS011;37380;45.186;9.792;2023-02-26T08:54:01;3.55;;;0.70;;
51296;SDS011;37380;45.186;9.792;2023-02-26T08:56:28;3.95;;;0.88;;
51296;SDS011;37380;45.186;9.792;2023-02-26T08:58:55;0.60;;;0.60;;
51296;SDS011;37380;45.186;9.792;2023-02-26T09:01:22;0.40;;;0.40;;
51296;SDS011;37380;45.186;9.792;2023-02-26T09:03:49;1.08;;;1.00;;
51296;SDS011;37380;45.186;9.792;2023-02-26T09:06:22;0.75;;;0.70;;
51296;SDS011;37380;45.186;9.792;2023-02-26T09:09:17;0.80;;;0.60;;
51296;SDS011;37380;45.186;9.792;2023-02-26T09:11:44;0.45;;;0.43;;
51296;SDS011;37380;45.186;9.792;2023-02-26T09:14:11;1.88;;;0.55;;
51296;SDS011;37380;45.186;9.792;2023-02-26T09:16:38;8.07;;;0.82;;
51296;SDS011;37380;45.186;9.792;2023-02-26T09:19:12;0.55;;;0.45;;
51296;SDS011;37380;45.186;9.792;2023-02-26T09:22:07;0.40;;;0.40;;
51296;SDS011;37380;45.186;9.792;2023-02-26T09:24:34;2.95;;;0.90;;
51296;SDS011;37380;45.186;9.792;2023-02-26T09:27:07;0.82;;;0.60;;
51296;SDS011;37380;45.186;9.792;2023-02-26T09:30:02;0.63;;;0.63;;
51296;SDS011;37380;45.186;9.792;2023-02-26T09:32:30;0.63;;;0.63;;
51296;SDS011;37380;45.186;9.792;2023-02-26T09:34:57;1.23;;;0.63;;
51296;SDS011;37380;45.186;9.792;2023-02-26T09:37:25;0.68;;;0.68;;
51296;SDS011;37380;45.186;9.792;2023-02-26T09:39:58;1.20;;;0.70;;
51296;SDS011;37380;45.186;9.792;2023-02-26T09:43:06;3.05;;;0.60;;
51296;SDS011;37380;45.186;9.792;2023-02-26T09:46:35;3.08;;;0.90;;
51296;SDS011;37380;45.186;9.792;2023-02-26T09:51:37;1.33;;;0.70;;
51296;SDS011;37380;45.186;9.792;2023-02-26T09:54:09;0.80;;;0.70;;
51296;SDS011;37380;45.186;9.792;2023-02-26T09:56:49;0.50;;;0.50;;
51296;SDS011;37380;45.186;9.792;2023-02-26T09:59:45;6.53;;;0.60;;
51296;SDS011;37380;45.186;9.792;2023-02-26T10:02:17;1.08;;;1.02;;
51296;SDS011;37380;45.186;9.792;2023-02-26T10:08:05;0.70;;;0.70;;
51296;SDS011;37380;45.186;9.792;2023-02-26T10:16:58;3.17;;;1.70;;
51296;SDS011;37380;45.186;9.792;2023-02-26T10:19:57;1.70;;;1.00;;
51296;SDS011;37380;45.186;9.792;2023-02-26T10:25:19;1.70;;;1.17;;
51296;SDS011;37380;45.186;9.792;2023-02-26T10:27:54;1.45;;;0.70;;
51296;SDS011;37380;45.186;9.792;2023-02-26T10:30:29;11.55;;;1.05;;
51296;SDS011;37380;45.186;9.792;2023-02-26T10:35:36;4.53;;;1.48;;
51296;SDS011;37380;45.186;9.792;2023-02-26T10:40:48;3.03;;;1.63;;
51296;SDS011;37380;45.186;9.792;2023-02-26T10:43:51;5.53;;;1.45;;
51296;SDS011;37380;45.186;9.792;2023-02-26T10:50:03;4.65;;;1.20;;
51296;SDS011;37380;45.186;9.792;2023-02-26T10:53:01;1.13;;;1.00;;
51296;SDS011;37380;45.186;9.792;2023-02-26T10:55:37;12.48;;;1.65;;
51296;SDS011;37380;45.186;9.792;2023-02-26T10:58:13;1.20;;;1.10;;
51296;SDS011;37380;45.186;9.792;2023-02-26T11:01:17;1.58;;;0.82;;
51296;SDS011;37380;45.186;9.792;2023-02-26T11:04:00;8.50;;;0.98;;
51296;SDS011;37380;45.186;9.792;2023-02-26T11:06:50;0.85;;;0.85;;
51296;SDS011;37380;45.186;9.792;2023-02-26T11:14:47;1.02;;;0.60;;
51296;SDS011;37380;45.186;9.792;2023-02-26T11:17:52;0.82;;;0.82;;
51296;SDS011;37380;45.186;9.792;2023-02-26T11:20:49;1.02;;;0.80;;
51296;SDS011;37380;45.186;9.792;2023-02-26T11:23:22;2.13;;;0.60;;
51296;SDS011;37380;45.186;9.792;2023-02-26T11:25:56;0.68;;;0.65;;
51296;SDS011;37380;45.186;9.792;2023-02-26T11:28:35;0.95;;;0.57;;
51296;SDS011;37380;45.186;9.792;2023-02-26T11:31:10;9.13;;;0.80;;
51296;SDS011;37380;45.186;9.792;2023-02-26T11:33:39;0.52;;;0.50;;
51296;SDS011;37380;45.186;9.792;2023-02-26T11:36:14;1.42;;;0.65;;
51296;SDS011;37380;45.186;9.792;2023-02-26T11:38:57;0.98;;;0.77;;
51296;SDS011;37380;45.186;9.792;2023-02-26T11:42:03;0.88;;;0.60;;
51296;SDS011;37380;45.186;9.792;2023-02-26T11:44:58;0.50;;;0.50;;
51296;SDS011;37380;45.186;9.792;2023-02-26T11:47:31;3.03;;;0.60;;
51296;SDS011;37380;45.186;9.792;2023-02-26T11:50:57;3.03;;;1.20;;
51296;SDS011;37380;45.186;9.792;2023-02-26T11:53:57;1.30;;;1.10;;
51296;SDS011;37380;45.186;9.792;2023-02-26T11:56:42;7.72;;;1.00;;
51296;SDS011;37380;45.186;9.792;2023-02-26T11:59:20;3.22;;;1.08;;
51296;SDS011;37380;45.186;9.792;2023-02-26T12:01:49;0.80;;;0.80;;
51296;SDS011;37380;45.186;9.792;2023-02-26T12:04:19;0.50;;;0.50;;
51296;SDS011;37380;45.186;9.792;2023-02-26T12:06:53;6.10;;;0.68;;
51296;SDS011;37380;45.186;9.792;2023-02-26T12:09:21;0.95;;;0.85;;
51296;SDS011;37380;45.186;9.792;2023-02-26T12:33:36;10.05;;;1.17;;
51296;SDS011;37380;45.186;9.792;2023-02-26T12:36:37;14.63;;;1.80;;
51296;SDS011;37380;45.186;9.792;2023-02-26T12:42:58;5.32;;;1.17;;
51296;SDS011;37380;45.186;9.792;2023-02-26T13:07:11;1.15;;;0.65;;
51296;SDS011;37380;45.186;9.792;2023-02-26T13:15:41;1.52;;;0.70;;
51296;SDS011;37380;45.186;9.792;2023-02-26T13:18:35;6.43;;;0.63;;
51296;SDS011;37380;45.186;9.792;2023-02-26T13:21:58;0.75;;;0.73;;
51296;SDS011;37380;45.186;9.792;2023-02-26T13:24:57;0.73;;;0.73;;
51296;SDS011;37380;45.186;9.792;2023-02-26T13:27:38;5.80;;;0.82;;
51296;SDS011;37380;45.186;9.792;2023-02-26T13:32:40;5.18;;;0.80;;
51296;SDS011;37380;45.186;9.792;2023-02-26T13:41:26;0.90;;;0.90;;
51296;SDS011;37380;45.186;9.792;2023-02-26T13:44:41;0.73;;;0.68;;
51296;SDS011;37380;45.186;9.792;2023-02-26T13:47:33;0.80;;;0.80;;
51296;SDS011;37380;45.186;9.792;2023-02-26T13:59:02;1.00;;;1.00;;
51296;SDS011;37380;45.186;9.792;2023-02-26T14:01:53;0.77;;;0.73;;
51296;SDS011;37380;45.186;9.792;2023-02-26T14:04:28;3.88;;;0.73;;
51296;SDS011;37380;45.186;9.792;2023-02-26T14:07:11;12.38;;;0.90;;
51296;SDS011;37380;45.186;9.792;2023-02-26T14:09:44;3.13;;;0.80;;
51296;SDS011;37380;45.186;9.792;2023-02-26T14:12:36;7.45;;;0.80;;
51296;SDS011;37380;45.186;9.792;2023-02-26T14:15:42;3.47;;;1.17;;
51296;SDS011;37380;45.186;9.792;2023-02-26T14:18:49;1.13;;;1.02;;
51296;SDS011;37380;45.186;9.792;2023-02-26T14:21:53;0.90;;;0.70;;
51296;SDS011;37380;45.186;9.792;2023-02-26T14:27:46;1.02;;;0.85;;
51296;SDS011;37380;45.186;9.792;2023-02-26T14:35:56;1.08;;;0.70;;
51296;SDS011;37380;45.186;9.792;2023-02-26T14:38:25;0.82;;;0.68;;
51296;SDS011;37380;45.186;9.792;2023-02-26T14:41:31;0.77;;;0.77;;
51296;SDS011;37380;45.186;9.792;2023-02-26T14:44:37;2.20;;;1.65;;
51296;SDS011;37380;45.186;9.792;2023-02-26T14:47:35;0.70;;;0.63;;
51296;SDS011;37380;45.186;9.792;2023-02-26T14:50:42;1.05;;;0.85;;
51296;SDS011;37380;45.186;9.792;2023-02-26T15:04:12;1.05;;;0.52;;
51296;SDS011;37380;45.186;9.792;2023-02-26T15:09:57;4.40;;;0.68;;
51296;SDS011;37380;45.186;9.792;2023-02-26T15:12:45;0.80;;;0.80;;
51296;SDS011;37380;45.186;9.792;2023-02-26T15:15:54;0.80;;;0.77;;
51296;SDS011;37380;45.186;9.792;2023-02-26T15:24:52;1.23;;;1.13;;
51296;SDS011;37380;45.186;9.792;2023-02-26T15:27:20;0.52;;;0.52;;
51296;SDS011;37380;45.186;9.792;2023-02-26T15:29:47;1.77;;;1.17;;
51296;SDS011;37380;45.186;9.792;2023-02-26T15:32:22;1.30;;;1.17;;
51296;SDS011;37380;45.186;9.792;2023-02-26T15:34:58;2.10;;;1.33;;
51296;SDS011;37380;45.186;9.792;2023-02-26T15:37:34;0.88;;;0.85;;
51296;SDS011;37380;45.186;9.792;2023-02-26T15:40:32;1.55;;;1.30;;
51296;SDS011;37380;45.186;9.792;2023-02-26T15:43:08;2.22;;;1.60;;
51296;SDS011;37380;45.186;9.792;2023-02-26T15:46:12;4.97;;;1.65;;
51296;SDS011;37380;45.186;9.792;2023-02-26T15:52:18;1.48;;;1.33;;
51296;SDS011;37380;45.186;9.792;2023-02-26T15:54:49;1.30;;;1.20;;
51296;SDS011;37380;45.186;9.792;2023-02-26T15:57:19;1.83;;;1.70;;
51296;SDS011;37380;45.186;9.792;2023-02-26T15:59:54;2.85;;;2.08;;
51296;SDS011;37380;45.186;9.792;2023-02-26T16:02:37;1.40;;;1.20;;
51296;SDS011;37380;45.186;9.792;2023-02-26T16:05:06;1.48;;;1.13;;
51296;SDS011;37380;45.186;9.792;2023-02-26T16:07:34;3.95;;;1.27;;
51296;SDS011;37380;45.186;9.792;2023-02-26T16:10:14;1.20;;;1.10;;
51296;SDS011;37380;45.186;9.792;2023-02-26T16:13:26;9.50;;;1.33;;
51296;SDS011;37380;45.186;9.792;2023-02-26T16:16:06;7.38;;;0.82;;
51296;SDS011;37380;45.186;9.792;2023-02-26T16:19:58;1.55;;;1.45;;
51296;SDS011;37380;45.186;9.792;2023-02-26T16:22:37;1.17;;;0.70;;
51296;SDS011;37380;45.186;9.792;2023-02-26T16:25:27;8.38;;;1.67;;
51296;SDS011;37380;45.186;9.792;2023-02-26T16:28:04;2.35;;;1.08;;
51296;SDS011;37380;45.186;9.792;2023-02-26T16:30:38;1.52;;;1.20;;
51296;SDS011;37380;45.186;9.792;2023-02-26T16:33:11;5.10;;;1.63;;
51296;SDS011;37380;45.186;9.792;2023-02-26T16:35:47;5.18;;;1.63;;
51296;SDS011;37380;45.186;9.792;2023-02-26T16:38:19;5.72;;;1.90;;
51296;SDS011;37380;45.186;9.792;2023-02-26T16:41:26;2.88;;;1.10;;
51296;SDS011;37380;45.186;9.792;2023-02-26T16:43:52;2.65;;;1.63;;
51296;SDS011;37380;45.186;9.792;2023-02-26T16:46:38;6.15;;;1.33;;
51296;SDS011;37380;45.186;9.792;2023-02-26T16:49:42;4.72;;;1.88;;
51296;SDS011;37380;45.186;9.792;2023-02-26T16:52:37;2.20;;;2.00;;
51296;SDS011;37380;45.186;9.792;2023-02-26T16:55:04;5.28;;;1.23;;
51296;SDS011;37380;45.186;9.792;2023-02-26T16:57:38;2.80;;;1.95;;
51296;SDS011;37380;45.186;9.792;2023-02-26T17:00:10;2.28;;;1.48;;
51296;SDS011;37380;45.186;9.792;2023-02-26T17:02:44;1.77;;;1.40;;
51296;SDS011;37380;45.186;9.792;2023-02-26T17:05:19;9.98;;;2.00;;
51296;SDS011;37380;45.186;9.792;2023-02-26T17:08:13;2.40;;;1.88;;
51296;SDS011;37380;45.186;9.792;2023-02-26T17:10:48;6.97;;;1.85;;
51296;SDS011;37380;45.186;9.792;2023-02-26T17:13:35;4.50;;;1.30;;
51296;SDS011;37380;45.186;9.792;2023-02-26T17:16:04;4.32;;;1.08;;
51296;SDS011;37380;45.186;9.792;2023-02-26T17:18:41;8.43;;;1.27;;
51296;SDS011;37380;45.186;9.792;2023-02-26T17:21:49;3.88;;;1.40;;
51296;SDS011;37380;45.186;9.792;2023-02-26T17:24:50;2.90;;;1.30;;
51296;SDS011;37380;45.186;9.792;2023-02-26T17:27:22;5.22;;;1.83;;
51296;SDS011;37380;45.186;9.792;2023-02-26T17:29:58;2.65;;;1.85;;
51296;SDS011;37380;45.186;9.792;2023-02-26T17:32:33;7.97;;;1.65;;
51296;SDS011;37380;45.186;9.792;2023-02-26T17:35:04;5.20;;;2.00;;
51296;SDS011;37380;45.186;9.792;2023-02-26T17:37:32;8.38;;;2.35;;
51296;SDS011;37380;45.186;9.792;2023-02-26T17:40:28;3.92;;;2.10;;
51296;SDS011;37380;45.186;9.792;2023-02-26T17:43:06;6.53;;;1.85;;
51296;SDS011;37380;45.186;9.792;2023-02-26T17:46:08;4.32;;;1.52;;
51296;SDS011;37380;45.186;9.792;2023-02-26T17:49:03;2.55;;;1.88;;
51296;SDS011;37380;45.186;9.792;2023-02-26T17:51:30;1.48;;;1.38;;
51296;SDS011;37380;45.186;9.792;2023-02-26T17:53:57;1.30;;;1.20;;
51296;SDS011;37380;45.186;9.792;2023-02-26T17:56:25;4.60;;;1.52;;
51296;SDS011;37380;45.186;9.792;2023-02-26T17:58:54;3.65;;;1.98;;
51296;SDS011;37380;45.186;9.792;2023-02-26T18:01:23;1.58;;;1.48;;
51296;SDS011;37380;45.186;9.792;2023-02-26T18:03:54;4.60;;;1.45;;
51296;SDS011;37380;45.186;9.792;2023-02-26T18:06:22;4.30;;;2.95;;
51296;SDS011;37380;45.186;9.792;2023-02-26T18:08:57;3.35;;;1.63;;
51296;SDS011;37380;45.186;9.792;2023-02-26T18:11:58;5.55;;;1.75;;
51296;SDS011;37380;45.186;9.792;2023-02-26T18:14:34;2.80;;;2.40;;
51296;SDS011;37380;45.186;9.792;2023-02-26T18:17:12;2.20;;;2.00;;
51296;SDS011;37380;45.186;9.792;2023-02-26T18:20:16;1.67;;;1.58;;
51296;SDS011;37380;45.186;9.792;2023-02-26T18:23:13;2.95;;;1.55;;
51296;SDS011;37380;45.186;9.792;2023-02-26T18:25:49;3.00;;;1.48;;
51296;SDS011;37380;45.186;9.792;2023-02-26T18:28:19;2.80;;;1.92;;
51296;SDS011;37380;45.186;9.792;2023-02-26T18:30:48;7.97;;;1.50;;
51296;SDS011;37380;45.186;9.792;2023-02-26T18:33:16;2.20;;;2.00;;
51296;SDS011;37380;45.186;9.792;2023-02-26T18:35:52;3.53;;;2.00;;
51296;SDS011;37380;45.186;9.792;2023-02-26T18:38:48;2.63;;;1.80;;
51296;SDS011;37380;45.186;9.792;2023-02-26T18:41:15;3.33;;;1.42;;
51296;SDS011;37380;45.186;9.792;2023-02-26T18:43:42;3.33;;;2.25;;
51296;SDS011;37380;45.186;9.792;2023-02-26T18:46:09;2.08;;;1.98;;
51296;SDS011;37380;45.186;9.792;2023-02-26T18:48:37;1.55;;;1.45;;
51296;SDS011;37380;45.186;9.792;2023-02-26T18:51:04;2.95;;;1.90;;
51296;SDS011;37380;45.186;9.792;2023-02-26T18:53:32;1.65;;;1.42;;
51296;SDS011;37380;45.186;9.792;2023-02-26T18:56:00;3.17;;;2.92;;
51296;SDS011;37380;45.186;9.792;2023-02-26T18:58:28;4.38;;;2.00;;
51296;SDS011;37380;45.186;9.792;2023-02-26T19:00:55;6.97;;;1.80;;